createdAt,value
2022-08-09T00:00:04.119Z,2.50
2022-08-09T00:02:33.964Z,2.50
2022-08-09T00:06:16.262Z,2.40
2022-08-09T00:07:49.049Z,2.58
2022-08-09T00:10:18.029Z,2.53
2022-08-09T00:12:52.631Z,2.65
2022-08-09T00:15:20.475Z,2.50
2022-08-09T00:18:10.711Z,2.60
2022-08-09T00:20:41.545Z,2.70
2022-08-09T00:23:57.512Z,2.30
2022-08-09T00:26:04.837Z,2.53
2022-08-09T00:28:34.510Z,2.60
2022-08-09T00:31:30.658Z,2.72
2022-08-09T00:33:51.519Z,2.83
2022-08-09T00:36:19.566Z,2.55
2022-08-09T00:38:50.771Z,2.67
2022-08-09T00:44:18.698Z,2.65
2022-08-09T00:44:20.205Z,2.43
2022-08-09T00:46:57.804Z,2.60
2022-08-09T00:49:32.810Z,2.75
2022-08-09T00:52:02.052Z,2.80
2022-08-09T00:54:35.999Z,2.78
2022-08-09T00:57:10.416Z,2.47
2022-08-09T00:59:41.502Z,2.30
2022-08-09T01:02:17.509Z,2.70
2022-08-09T01:05:14.073Z,2.58
2022-08-09T01:07:59.969Z,2.80
2022-08-09T01:10:31.909Z,2.67
2022-08-09T01:13:17.986Z,2.78
2022-08-09T01:15:51.804Z,2.80
2022-08-09T01:18:30.549Z,2.80
2022-08-09T01:20:59.661Z,2.93
2022-08-09T01:24:02.213Z,3.22
2022-08-09T01:26:22.614Z,2.65
2022-08-09T01:28:55.997Z,3.03
2022-08-09T01:32:32.042Z,3.00
2022-08-09T01:34:20.274Z,3.30
2022-08-09T01:36:48.227Z,3.00
2022-08-09T01:39:16.153Z,3.10
2022-08-09T01:41:56.441Z,2.88
2022-08-09T01:44:28.756Z,3.20
2022-08-09T01:46:56.052Z,3.10
2022-08-09T01:49:24.329Z,3.00
2022-08-09T01:51:54.667Z,3.00
2022-08-09T01:54:30.160Z,3.30
2022-08-09T01:57:04.189Z,3.23
2022-08-09T01:59:32.747Z,3.15
2022-08-09T02:02:09.048Z,3.40
2022-08-09T02:04:45.436Z,3.35
2022-08-09T02:08:38.484Z,3.40
2022-08-09T02:10:07.560Z,3.33
2022-08-09T02:12:36.064Z,3.53
2022-08-09T02:15:06.141Z,3.42
2022-08-09T02:18:01.288Z,3.30
2022-08-09T02:20:26.373Z,3.47
2022-08-09T02:23:04.571Z,3.60
2022-08-09T02:25:42.433Z,3.53
2022-08-09T02:28:32.335Z,3.58
2022-08-09T02:31:02.172Z,3.50
2022-08-09T02:33:58.451Z,4.00
2022-08-09T02:36:21.587Z,3.60
2022-08-09T02:38:55.122Z,3.65
2022-08-09T02:41:27.038Z,3.60
2022-08-09T02:43:55.636Z,3.40
2022-08-09T02:46:25.060Z,3.70
2022-08-09T02:48:56.683Z,3.28
2022-08-09T02:51:26.533Z,3.45
2022-08-09T02:54:00.395Z,4.10
2022-08-09T02:56:28.963Z,3.70
2022-08-09T02:58:56.482Z,3.80
2022-08-09T03:01:42.519Z,3.85
2022-08-09T03:04:19.325Z,4.10
2022-08-09T03:06:48.794Z,4.10
2022-08-09T03:09:17.338Z,3.88
2022-08-09T03:12:10.413Z,4.00
2022-08-09T03:14:32.607Z,4.07
2022-08-09T03:17:02.110Z,3.75
2022-08-09T03:19:52.427Z,4.15
2022-08-09T03:22:30.046Z,3.63
2022-08-09T03:25:06.162Z,3.90
2022-08-09T03:27:48.149Z,3.65
2022-08-09T03:30:29.833Z,3.77
2022-08-09T03:33:05.671Z,3.80
2022-08-09T03:36:11.749Z,4.32
2022-08-09T03:38:28.798Z,3.90
2022-08-09T03:40:56.370Z,3.83
2022-08-09T03:43:23.485Z,4.00
2022-08-09T03:46:04.066Z,3.80
2022-08-09T03:48:43.049Z,4.05
2022-08-09T03:51:56.366Z,4.15
2022-08-09T03:54:06.158Z,4.20
2022-08-09T03:56:38.735Z,4.20
2022-08-09T03:59:13.851Z,4.35
2022-08-09T04:01:50.037Z,4.13
2022-08-09T04:04:17.830Z,4.25
2022-08-09T04:06:49.048Z,4.60
2022-08-09T04:09:47.636Z,4.10
2022-08-09T04:12:11.964Z,3.83
2022-08-09T04:15:02.147Z,4.15
2022-08-09T04:17:39.368Z,4.15
2022-08-09T04:20:10.138Z,3.97
2022-08-09T04:22:41.130Z,3.88
2022-08-09T04:25:11.885Z,4.20
2022-08-09T04:27:41.570Z,3.88
2022-08-09T04:30:12.813Z,3.70
2022-08-09T04:32:45.959Z,4.05
2022-08-09T04:35:15.330Z,3.80
2022-08-09T04:37:45.761Z,4.10
2022-08-09T04:40:19.155Z,4.10
2022-08-09T04:42:56.696Z,4.15
2022-08-09T04:45:24.244Z,3.95
2022-08-09T04:48:00.858Z,4.13
2022-08-09T04:50:33.588Z,4.03
2022-08-09T04:53:02.621Z,4.13
2022-08-09T04:55:38.061Z,4.50
2022-08-09T04:58:18.266Z,4.35
2022-08-09T05:00:45.444Z,4.30
2022-08-09T05:03:40.498Z,4.10
2022-08-09T05:06:06.715Z,3.95
2022-08-09T05:08:35.050Z,4.40
2022-08-09T05:11:02.734Z,4.57
2022-08-09T05:13:33.145Z,4.10
2022-08-09T05:16:01.292Z,4.30
2022-08-09T05:18:50.736Z,4.45
2022-08-09T05:21:20.882Z,4.10
2022-08-09T05:24:00.523Z,3.90
2022-08-09T05:26:45.461Z,3.85
2022-08-09T05:29:21.781Z,3.50
2022-08-09T05:31:57.435Z,3.27
2022-08-09T05:34:30.013Z,3.63
2022-08-09T05:37:01.730Z,3.35
2022-08-09T05:39:36.334Z,3.40
2022-08-09T05:42:10.254Z,3.47
2022-08-09T05:44:45.361Z,3.35
2022-08-09T05:47:17.668Z,3.28
2022-08-09T05:50:35.108Z,3.28
2022-08-09T05:52:32.018Z,3.22
2022-08-09T05:55:03.142Z,3.58
2022-08-09T05:57:55.197Z,3.30
2022-08-09T06:00:22.330Z,3.47
2022-08-09T06:02:54.324Z,3.42
2022-08-09T06:05:49.745Z,3.40
2022-08-09T06:08:11.452Z,3.20
2022-08-09T06:10:39.083Z,3.30
2022-08-09T06:13:12.421Z,3.15
2022-08-09T06:15:46.765Z,2.80
2022-08-09T06:18:15.840Z,2.75
2022-08-09T06:20:54.943Z,3.00
2022-08-09T06:23:58.634Z,3.22
2022-08-09T06:26:12.398Z,3.10
2022-08-09T06:28:43.205Z,2.80
2022-08-09T06:31:11.002Z,2.75
2022-08-09T06:33:41.597Z,3.38
2022-08-09T06:36:11.969Z,2.95
2022-08-09T06:38:47.916Z,2.73
2022-08-09T06:41:19.141Z,2.50
2022-08-09T06:43:48.702Z,2.60
2022-08-09T06:46:40.324Z,2.90
2022-08-09T06:49:03.851Z,2.57
2022-08-09T06:51:33.582Z,2.30
2022-08-09T06:54:06.055Z,2.20
2022-08-09T06:56:38.951Z,2.40
2022-08-09T07:00:50.662Z,2.35
2022-08-09T07:02:04.732Z,2.30
2022-08-09T07:04:32.179Z,2.13
2022-08-09T07:07:00.145Z,2.70
2022-08-09T07:09:55.069Z,2.40
2022-08-09T07:12:17.966Z,2.07
2022-08-09T07:14:45.965Z,2.13
2022-08-09T07:17:18.798Z,2.10
2022-08-09T07:19:47.957Z,2.20
2022-08-09T07:22:18.593Z,1.90
2022-08-09T07:24:54.732Z,2.10
2022-08-09T07:27:26.763Z,1.80
2022-08-09T07:30:02.358Z,2.20
2022-08-09T07:32:32.446Z,2.20
2022-08-09T07:35:02.857Z,2.08
2022-08-09T07:37:43.802Z,1.90
2022-08-09T07:40:13.264Z,2.60
2022-08-09T07:42:57.032Z,1.92
2022-08-09T07:45:40.300Z,2.10
2022-08-09T07:48:25.717Z,1.40
2022-08-09T07:51:03.188Z,1.40
2022-08-09T07:54:06.796Z,1.70
2022-08-09T07:56:31.290Z,1.50
2022-08-09T07:58:59.251Z,1.50
2022-08-09T08:01:32.732Z,1.60
2022-08-09T08:04:01.365Z,1.30
2022-08-09T08:06:31.870Z,1.45
2022-08-09T08:09:05.030Z,1.40
2022-08-09T08:12:10.954Z,1.60
2022-08-09T08:14:21.112Z,1.45
2022-08-09T08:17:07.831Z,1.60
2022-08-09T08:19:38.378Z,1.45
2022-08-09T08:22:05.986Z,1.65
2022-08-09T08:24:40.158Z,1.58
2022-08-09T08:27:16.320Z,1.42
2022-08-09T08:29:48.791Z,1.40
2022-08-09T08:32:24.148Z,1.23
2022-08-09T08:34:58.593Z,1.37
2022-08-09T08:37:26.592Z,1.40
2022-08-09T08:40:09.621Z,1.17
2022-08-09T08:42:38.329Z,1.33
2022-08-09T08:45:13.404Z,1.70
2022-08-09T08:47:42.831Z,1.40
2022-08-09T08:50:14.688Z,1.50
2022-08-09T08:52:59.682Z,1.30
2022-08-09T08:55:27.706Z,1.53
2022-08-09T08:57:57.618Z,1.53
2022-08-09T09:00:30.045Z,1.40
2022-08-09T09:03:11.880Z,1.50
2022-08-09T09:06:00.149Z,1.50
2022-08-09T09:08:40.180Z,1.30
2022-08-09T09:11:07.812Z,1.40
2022-08-09T09:13:54.863Z,1.70
2022-08-09T09:16:30.949Z,1.45
2022-08-09T09:22:11.346Z,1.40
2022-08-09T09:24:43.197Z,1.60
2022-08-09T09:28:03.291Z,1.50
2022-08-09T09:30:12.258Z,1.50
2022-08-09T09:32:41.577Z,1.80
2022-08-09T09:35:10.376Z,1.70
2022-08-09T09:37:40.926Z,1.75
2022-08-09T09:40:09.158Z,1.70
2022-08-09T09:42:36.383Z,1.80
2022-08-09T09:45:06.530Z,1.83
2022-08-09T09:47:47.687Z,2.10
2022-08-09T09:50:23.133Z,1.95
2022-08-09T09:52:53.764Z,1.83
2022-08-09T09:55:28.590Z,1.70
2022-08-09T09:58:16.906Z,1.90
2022-08-09T10:00:55.182Z,2.00
2022-08-09T10:03:56.366Z,2.30
2022-08-09T10:06:25.690Z,1.77
2022-08-09T10:09:00.267Z,2.13
2022-08-09T10:12:00.915Z,2.20
2022-08-09T10:14:27.296Z,2.30
2022-08-09T10:17:11.305Z,1.80
2022-08-09T10:19:45.927Z,1.90
2022-08-09T10:22:13.279Z,1.90
2022-08-09T10:24:41.304Z,1.80
2022-08-09T10:27:17.099Z,1.80
2022-08-09T10:30:27.237Z,2.00
2022-08-09T10:32:40.201Z,1.90
2022-08-09T10:35:10.390Z,1.98
2022-08-09T10:37:40.441Z,2.03
2022-08-09T10:40:12.110Z,2.10
2022-08-09T10:42:59.332Z,2.10
2022-08-09T10:45:31.867Z,1.80
2022-08-09T10:48:19.579Z,1.80
2022-08-09T10:51:11.882Z,1.75
2022-08-09T10:53:54.571Z,1.90
2022-08-09T10:56:23.875Z,1.92
2022-08-09T10:58:51.677Z,1.90
2022-08-09T11:03:13.558Z,1.90
2022-08-09T11:04:31.541Z,1.88
2022-08-09T11:07:00.743Z,2.00
2022-08-09T11:09:47.521Z,2.05
2022-08-09T11:12:17.765Z,1.90
2022-08-09T11:14:48.496Z,2.05
2022-08-09T11:17:15.826Z,1.88
2022-08-09T11:20:08.055Z,1.90
2022-08-09T11:22:41.556Z,2.10
2022-08-09T11:25:10.365Z,2.08
2022-08-09T11:28:02.529Z,1.97
2022-08-09T11:30:33.826Z,2.13
2022-08-09T11:33:16.872Z,2.03
2022-08-09T11:35:50.139Z,2.00
2022-08-09T11:38:28.591Z,2.00
2022-08-09T11:41:05.231Z,2.00
2022-08-09T11:43:32.533Z,1.95
2022-08-09T11:46:00.858Z,1.80
2022-08-09T11:48:30.132Z,2.00
2022-08-09T11:51:21.324Z,1.90
2022-08-09T11:54:01.766Z,1.92
2022-08-09T11:56:41.469Z,2.20
2022-08-09T11:59:24.408Z,1.90
2022-08-09T12:02:17.044Z,1.75
2022-08-09T12:04:45.258Z,1.85
2022-08-09T12:07:14.339Z,1.90
2022-08-09T12:09:50.638Z,1.92
2022-08-09T12:12:28.610Z,1.83
2022-08-09T12:15:07.393Z,1.80
2022-08-09T12:17:44.283Z,1.92
2022-08-09T12:20:16.825Z,1.92
2022-08-09T12:22:50.282Z,1.63
2022-08-09T12:25:37.649Z,2.15
2022-08-09T12:29:14.070Z,1.83
2022-08-09T12:31:00.867Z,1.75
2022-08-09T12:33:51.423Z,1.80
2022-08-09T12:36:27.737Z,1.77
2022-08-09T12:39:00.200Z,1.80
2022-08-09T12:41:28.532Z,1.70
2022-08-09T12:44:05.380Z,1.90
2022-08-09T12:46:36.128Z,1.77
2022-08-09T12:49:03.872Z,1.95
2022-08-09T12:52:00.581Z,2.00
2022-08-09T12:54:18.172Z,1.83
2022-08-09T12:56:48.611Z,1.87
2022-08-09T12:59:20.593Z,1.90
2022-08-09T13:02:01.475Z,2.03
2022-08-09T13:04:36.294Z,2.03
2022-08-09T13:07:49.986Z,2.00
2022-08-09T13:10:07.746Z,1.80
2022-08-09T13:12:40.155Z,1.98
2022-08-09T13:15:22.076Z,1.93
2022-08-09T13:18:04.816Z,1.87
2022-08-09T13:20:37.183Z,1.90
2022-08-09T13:24:06.992Z,2.13
2022-08-09T13:26:05.478Z,1.90
2022-08-09T13:28:34.255Z,2.03
2022-08-09T13:32:12.464Z,1.98
2022-08-09T13:33:54.897Z,1.90
2022-08-09T13:36:39.457Z,1.70
2022-08-09T13:41:17.566Z,1.90
2022-08-09T13:42:11.825Z,1.80
2022-08-09T13:44:42.042Z,1.95
2022-08-09T13:47:27.187Z,1.90
2022-08-09T13:50:00.955Z,1.88
2022-08-09T13:52:29.871Z,2.00
2022-08-09T13:55:00.401Z,1.90
2022-08-09T13:57:36.381Z,2.00
2022-08-09T14:00:09.740Z,2.08
2022-08-09T14:02:42.845Z,2.03
2022-08-09T14:05:56.513Z,1.80
2022-08-09T14:08:11.255Z,1.90
2022-08-09T14:10:50.185Z,2.10
2022-08-09T14:13:21.910Z,2.13
2022-08-09T14:16:06.969Z,2.20
2022-08-09T14:18:38.324Z,2.30
2022-08-09T14:21:05.960Z,1.90
2022-08-09T14:23:40.788Z,1.80
2022-08-09T14:26:21.379Z,2.03
2022-08-09T14:28:48.550Z,1.73
2022-08-09T14:31:15.705Z,1.80
2022-08-09T14:33:42.795Z,1.80
2022-08-09T14:36:19.982Z,1.80
2022-08-09T14:38:52.656Z,1.95
2022-08-09T14:41:26.529Z,1.80
2022-08-09T14:44:11.173Z,1.80
2022-08-09T14:47:03.269Z,1.77
2022-08-09T14:49:26.220Z,1.80
2022-08-09T14:51:58.379Z,1.95
2022-08-09T14:54:28.271Z,1.70
2022-08-09T14:56:58.055Z,1.80
2022-08-09T14:59:27.143Z,2.50
2022-08-09T15:01:54.460Z,6.32
2022-08-09T15:04:23.357Z,5.28
2022-08-09T15:06:51.612Z,2.50
2022-08-09T15:09:51.981Z,3.35
2022-08-09T15:12:08.004Z,2.40
2022-08-09T15:14:38.705Z,2.22
2022-08-09T15:17:09.719Z,2.30
2022-08-09T15:19:59.510Z,2.10
2022-08-09T15:22:26.189Z,2.08
2022-08-09T15:24:53.656Z,2.30
2022-08-09T15:27:21.509Z,2.08
2022-08-09T15:30:55.393Z,2.00
2022-08-09T15:32:36.410Z,1.90
2022-08-09T15:35:18.652Z,2.00
2022-08-09T15:37:57.441Z,1.85
2022-08-09T15:40:43.918Z,2.13
2022-08-09T15:43:13.748Z,2.00
2022-08-09T15:45:51.661Z,1.90
2022-08-09T15:48:30.824Z,2.00
2022-08-09T15:51:00.095Z,2.27
2022-08-09T15:54:04.580Z,2.03
2022-08-09T15:56:21.621Z,2.20
2022-08-09T15:58:56.058Z,1.85
2022-08-09T16:01:23.389Z,1.87
2022-08-09T16:03:51.210Z,1.92
2022-08-09T16:06:32.884Z,2.10
2022-08-09T16:09:05.138Z,2.28
2022-08-09T16:11:32.897Z,1.90
2022-08-09T16:14:03.760Z,1.80
2022-08-09T16:16:34.576Z,1.90
2022-08-09T16:19:04.590Z,1.80
2022-08-09T16:21:34.085Z,1.70
2022-08-09T16:24:02.668Z,1.98
2022-08-09T16:26:33.626Z,1.92
2022-08-09T16:29:10.604Z,1.98
2022-08-09T16:32:18.561Z,1.87
2022-08-09T16:34:26.777Z,1.67
2022-08-09T16:36:56.076Z,1.90
2022-08-09T16:39:26.003Z,1.90
2022-08-09T16:42:03.788Z,1.90
2022-08-09T16:44:32.214Z,1.70
2022-08-09T16:47:01.853Z,1.80
2022-08-09T16:50:29.847Z,1.65
2022-08-09T16:52:19.133Z,1.73
2022-08-09T16:54:46.576Z,2.10
2022-08-09T16:57:17.008Z,1.65
2022-08-09T16:59:50.209Z,1.70
2022-08-09T17:02:25.487Z,1.90
2022-08-09T17:04:52.868Z,2.00
2022-08-09T17:08:43.016Z,5.07
2022-08-09T17:10:08.662Z,2.70
2022-08-09T17:12:36.391Z,1.95
2022-08-09T17:15:31.394Z,2.75
2022-08-09T17:17:51.601Z,1.95
2022-08-09T17:20:36.965Z,2.20
2022-08-09T17:23:06.116Z,2.33
2022-08-09T17:25:38.096Z,2.45
2022-08-09T17:28:06.199Z,2.80
2022-08-09T17:30:34.425Z,2.40
2022-08-09T17:33:05.591Z,2.05
2022-08-09T17:35:49.379Z,2.10
2022-08-09T17:38:32.207Z,2.20
2022-08-09T17:41:02.945Z,2.20
2022-08-09T17:43:33.618Z,2.10
2022-08-09T17:46:06.281Z,1.95
2022-08-09T17:48:39.479Z,2.10
2022-08-09T17:51:18.821Z,2.00
2022-08-09T17:53:53.553Z,2.00
2022-08-09T17:56:27.234Z,2.55
2022-08-09T17:58:56.303Z,2.60
2022-08-09T18:01:23.875Z,2.47
2022-08-09T18:03:54.558Z,2.50
2022-08-09T18:06:30.715Z,2.60
2022-08-09T18:09:00.983Z,2.80
2022-08-09T18:11:28.940Z,2.90
2022-08-09T18:14:03.512Z,2.63
2022-08-09T18:16:48.872Z,2.78
2022-08-09T18:20:55.678Z,2.80
2022-08-09T18:22:04.487Z,2.90
2022-08-09T18:24:31.666Z,2.90
2022-08-09T18:27:01.166Z,2.95
2022-08-09T18:30:41.255Z,2.80
2022-08-09T18:32:19.028Z,2.92
2022-08-09T18:34:48.213Z,2.55
2022-08-09T18:37:48.636Z,2.70
2022-08-09T18:40:03.089Z,2.80
2022-08-09T18:42:30.974Z,3.03
2022-08-09T18:45:01.178Z,3.20
2022-08-09T18:47:37.272Z,2.70
2022-08-09T18:50:06.103Z,3.08
2022-08-09T18:52:36.929Z,2.85
2022-08-09T18:55:05.093Z,2.70
2022-08-09T18:57:43.018Z,2.78
2022-08-09T19:00:16.633Z,2.38
2022-08-09T19:02:47.737Z,2.40
2022-08-09T19:05:28.384Z,2.70
2022-08-09T19:08:09.742Z,2.08
2022-08-09T19:10:39.378Z,2.17
2022-08-09T19:13:20.143Z,2.33
2022-08-09T19:15:52.942Z,2.28
2022-08-09T19:18:33.198Z,2.10
2022-08-09T19:21:09.435Z,1.98
2022-08-09T19:24:33.117Z,1.77
2022-08-09T19:26:30.989Z,2.05
2022-08-09T19:29:01.277Z,2.10
2022-08-09T19:31:30.497Z,1.90
2022-08-09T19:34:22.089Z,2.08
2022-08-09T19:36:50.950Z,1.92
2022-08-09T19:39:20.521Z,1.90
2022-08-09T19:41:56.778Z,1.90
2022-08-09T19:44:24.191Z,1.90
2022-08-09T19:46:53.596Z,1.70
2022-08-09T19:50:08.467Z,2.10
2022-08-09T19:52:10.050Z,1.90
2022-08-09T19:54:39.804Z,1.92
2022-08-09T19:57:08.469Z,1.80
2022-08-09T19:59:57.725Z,1.83
2022-08-09T20:04:09.904Z,1.88
2022-08-09T20:05:14.934Z,1.95
2022-08-09T20:08:00.168Z,1.90
2022-08-09T20:10:34.328Z,2.05
2022-08-09T20:13:04.747Z,2.20
2022-08-09T20:16:35.233Z,2.20
2022-08-09T20:18:20.059Z,1.98
2022-08-09T20:20:50.372Z,2.10
2022-08-09T20:23:19.443Z,2.10
2022-08-09T20:25:51.502Z,2.38
2022-08-09T20:28:24.515Z,2.20
2022-08-09T20:30:55.471Z,1.92
2022-08-09T20:33:22.558Z,1.98
2022-08-09T20:35:51.687Z,1.80
2022-08-09T20:38:32.134Z,2.00
2022-08-09T20:41:06.848Z,1.85
2022-08-09T20:43:34.046Z,1.73
2022-08-09T20:46:34.004Z,1.70
2022-08-09T20:48:49.583Z,1.90
2022-08-09T20:51:23.007Z,2.08
2022-08-09T20:53:51.259Z,2.15
2022-08-09T20:56:21.795Z,2.13
2022-08-09T20:58:54.491Z,2.15
2022-08-09T21:01:34.242Z,2.00
2022-08-09T21:05:50.730Z,1.80
2022-08-09T21:07:11.712Z,1.80
2022-08-09T21:09:55.566Z,2.20
2022-08-09T21:15:12.903Z,2.03
2022-08-09T21:18:21.742Z,1.80
2022-08-09T21:20:30.224Z,1.75
2022-08-09T21:22:57.689Z,1.92
2022-08-09T21:25:56.364Z,1.95
2022-08-09T21:28:33.352Z,2.00
2022-08-09T21:31:17.580Z,2.20
2022-08-09T21:33:50.267Z,1.98
2022-08-09T21:36:18.111Z,2.00
2022-08-09T21:38:45.745Z,2.38
2022-08-09T21:41:25.575Z,2.20
2022-08-09T21:44:10.278Z,2.20
2022-08-09T21:46:37.032Z,2.05
2022-08-09T21:49:03.999Z,2.00
2022-08-09T21:51:36.451Z,2.03
2022-08-09T21:54:12.034Z,2.20
2022-08-09T21:56:44.870Z,2.38
2022-08-09T21:59:25.388Z,2.38
2022-08-09T22:02:00.247Z,2.10
2022-08-09T22:04:55.562Z,2.20
2022-08-09T22:07:35.156Z,2.50
2022-08-09T22:10:01.106Z,2.45
2022-08-09T22:12:30.824Z,2.10
2022-08-09T22:14:58.609Z,2.50
2022-08-09T22:17:25.454Z,2.42
2022-08-09T22:19:59.897Z,2.80
2022-08-09T22:22:28.503Z,2.72
2022-08-09T22:26:06.844Z,2.58
2022-08-09T22:27:42.887Z,3.10
2022-08-09T22:30:10.826Z,2.63
2022-08-09T22:32:38.311Z,2.47
2022-08-09T22:36:01.219Z,3.25
2022-08-09T22:38:07.316Z,4.00
2022-08-09T22:40:35.304Z,2.80
2022-08-09T22:43:08.685Z,4.13
2022-08-09T22:48:12.783Z,2.83
2022-08-09T22:48:36.056Z,3.40
2022-08-09T22:51:10.273Z,4.65
2022-08-09T22:53:58.422Z,5.10
2022-08-09T22:56:31.006Z,4.50
2022-08-09T22:59:06.082Z,3.53
2022-08-09T23:01:49.143Z,2.93
2022-08-09T23:04:17.224Z,3.05
2022-08-09T23:07:04.387Z,2.78
2022-08-09T23:09:38.675Z,2.95
2022-08-09T23:12:05.871Z,2.85
2022-08-09T23:14:41.439Z,2.90
2022-08-09T23:17:10.730Z,2.75
2022-08-09T23:20:06.186Z,2.88
2022-08-09T23:22:24.559Z,3.05
2022-08-09T23:24:51.571Z,2.90
2022-08-09T23:27:18.371Z,2.83
2022-08-09T23:29:45.791Z,3.30
2022-08-09T23:32:13.002Z,3.00
2022-08-09T23:34:39.814Z,3.30
2022-08-09T23:37:06.768Z,3.10
2022-08-09T23:39:33.538Z,3.20
2022-08-09T23:42:01.480Z,3.03
2022-08-09T23:44:28.203Z,3.70
2022-08-09T23:46:57.520Z,3.65
2022-08-09T23:49:25.671Z,3.55
2022-08-09T23:51:53.397Z,3.70
2022-08-09T23:54:20.836Z,3.90
2022-08-09T23:56:56.032Z,3.88
2022-08-09T23:59:25.898Z,3.60
